createdAt,value
2022-12-01T00:04:33.810Z,7.75
2022-12-01T00:09:54.017Z,6.78
2022-12-01T00:15:00.875Z,7.88
2022-12-01T00:20:03.729Z,7.65
2022-12-01T00:25:06.835Z,6.47
2022-12-01T00:30:13.145Z,7.30
2022-12-01T00:35:16.774Z,7.13
2022-12-01T00:40:19.590Z,7.50
2022-12-01T00:45:23.685Z,6.90
2022-12-01T00:50:27.049Z,7.47
2022-12-01T00:55:30.135Z,5.75
2022-12-01T01:00:42.526Z,6.20
2022-12-01T01:05:45.329Z,6.28
2022-12-01T01:10:49.257Z,6.10
2022-12-01T01:16:00.182Z,6.65
2022-12-01T01:21:05.293Z,6.30
2022-12-01T01:26:10.261Z,6.03
2022-12-01T01:31:17.159Z,7.57
2022-12-01T01:36:20.860Z,7.10
2022-12-01T01:41:24.974Z,6.38
2022-12-01T01:46:31.182Z,6.40
2022-12-01T01:51:37.782Z,6.23
2022-12-01T01:56:40.505Z,6.53
2022-12-01T02:01:45.106Z,6.25
2022-12-01T02:06:48.142Z,6.38
2022-12-01T02:12:11.422Z,5.95
2022-12-01T02:17:28.039Z,5.88
2022-12-01T02:22:47.217Z,5.60
2022-12-01T02:28:26.403Z,6.15
2022-12-01T02:33:36.147Z,6.60
2022-12-01T02:38:41.822Z,6.53
2022-12-01T02:43:50.029Z,6.95
2022-12-01T02:48:58.471Z,7.72
2022-12-01T02:54:03.584Z,6.93
2022-12-01T02:59:10.792Z,6.72
2022-12-01T03:09:40.901Z,5.88
2022-12-01T03:14:52.741Z,7.18
2022-12-01T03:20:04.303Z,5.90
2022-12-01T03:25:08.694Z,6.00
2022-12-01T03:30:13.863Z,5.82
2022-12-01T03:35:23.868Z,7.17
2022-12-01T03:40:29.502Z,6.68
2022-12-01T03:45:41.505Z,6.80
2022-12-01T03:50:57.724Z,6.47
2022-12-01T03:56:06.404Z,5.40
2022-12-01T04:01:10.052Z,6.40
2022-12-01T04:06:14.171Z,6.38
2022-12-01T04:11:34.465Z,9.00
2022-12-01T04:16:37.281Z,8.02
2022-12-01T04:21:41.816Z,7.30
2022-12-01T04:26:45.957Z,5.75
2022-12-01T04:31:48.901Z,5.70
2022-12-01T04:36:53.012Z,5.78
2022-12-01T04:41:55.835Z,6.57
2022-12-01T04:46:58.802Z,6.05
2022-12-01T04:52:03.092Z,6.88
2022-12-01T04:57:05.919Z,6.53
2022-12-01T05:02:08.774Z,6.63
2022-12-01T05:07:14.433Z,7.40
2022-12-01T05:12:17.737Z,11.40
2022-12-01T05:17:20.529Z,14.40
2022-12-01T05:22:56.872Z,16.42
2022-12-01T05:27:47.427Z,18.13
2022-12-01T05:32:50.196Z,17.17
2022-12-01T05:37:54.376Z,18.83
2022-12-01T05:42:57.347Z,19.33
2022-12-01T05:48:01.705Z,20.42
2022-12-01T05:53:06.037Z,18.65
2022-12-01T05:58:09.549Z,20.35
2022-12-01T06:03:12.329Z,22.33
2022-12-01T06:08:16.416Z,24.63
2022-12-01T06:13:19.589Z,21.10
2022-12-01T06:18:22.359Z,22.40
2022-12-01T06:23:30.320Z,22.65
2022-12-01T06:28:33.600Z,24.63
2022-12-01T06:33:36.466Z,23.60
2022-12-01T06:38:40.599Z,25.48
2022-12-01T06:43:43.316Z,25.08
2022-12-01T06:48:49.027Z,29.00
2022-12-01T06:53:57.720Z,28.02
2022-12-01T06:59:03.916Z,28.65
2022-12-01T07:04:06.995Z,29.15
2022-12-01T07:09:11.087Z,28.58
2022-12-01T07:14:20.362Z,29.85
2022-12-01T07:19:23.128Z,28.77
2022-12-01T07:24:27.486Z,29.52
2022-12-01T07:29:30.326Z,28.60
2022-12-01T07:34:33.982Z,29.35
2022-12-01T07:39:38.209Z,30.35
2022-12-01T07:44:41.030Z,26.45
2022-12-01T07:49:43.819Z,30.00
2022-12-01T07:54:49.598Z,32.10
2022-12-01T07:59:53.004Z,31.73
2022-12-01T08:04:55.858Z,33.47
2022-12-01T08:10:00.127Z,33.40
2022-12-01T08:15:02.999Z,30.48
2022-12-01T08:20:07.886Z,37.47
2022-12-01T08:25:13.019Z,34.17
2022-12-01T08:30:16.994Z,31.88
2022-12-01T08:35:19.750Z,32.60
2022-12-01T08:40:24.100Z,33.55
2022-12-01T08:45:30.067Z,32.72
2022-12-01T08:50:32.864Z,32.88
2022-12-01T08:55:37.429Z,33.42
2022-12-01T09:00:40.409Z,32.03
2022-12-01T09:05:43.629Z,29.90
2022-12-01T09:10:53.480Z,29.10
2022-12-01T09:15:58.425Z,27.15
2022-12-01T09:21:10.088Z,25.75
2022-12-01T09:26:19.072Z,33.75
2022-12-01T09:31:23.457Z,31.45
2022-12-01T09:36:31.853Z,28.80
2022-12-01T09:41:40.279Z,26.85
2022-12-01T09:46:47.610Z,30.30
2022-12-01T09:51:51.017Z,27.98
2022-12-01T09:56:56.068Z,30.85
2022-12-01T10:02:04.684Z,31.13
2022-12-01T10:07:19.010Z,28.88
2022-12-01T10:12:27.884Z,30.10
2022-12-01T10:17:40.094Z,32.28
2022-12-01T10:23:05.524Z,31.85
2022-12-01T10:28:27.112Z,36.28
2022-12-01T10:33:37.844Z,36.88
2022-12-01T10:38:40.710Z,31.67
2022-12-01T10:43:47.444Z,33.08
2022-12-01T10:48:55.767Z,33.28
2022-12-01T10:54:00.421Z,32.58
2022-12-01T10:59:18.318Z,31.23
2022-12-01T11:04:34.516Z,32.10
2022-12-01T11:09:37.364Z,29.80
2022-12-01T11:14:45.998Z,33.83
2022-12-01T11:19:49.478Z,36.72
2022-12-01T11:25:04.150Z,34.15
2022-12-01T11:30:22.139Z,29.23
2022-12-01T11:35:27.821Z,34.00
2022-12-01T11:40:32.932Z,35.30
2022-12-01T11:45:40.433Z,32.13
2022-12-01T11:51:04.156Z,29.65
2022-12-01T11:56:17.228Z,37.65
2022-12-01T12:01:42.175Z,33.63
2022-12-01T12:06:54.746Z,32.88
2022-12-01T12:12:06.302Z,33.80
2022-12-01T12:17:38.076Z,32.90
2022-12-01T12:22:55.403Z,37.45
2022-12-01T12:28:20.785Z,39.38
2022-12-01T12:33:54.266Z,36.67
2022-12-01T12:39:15.113Z,34.72
2022-12-01T12:44:39.444Z,31.02
2022-12-01T12:49:48.725Z,31.23
2022-12-01T12:54:56.603Z,30.58
2022-12-01T13:00:03.976Z,31.95
2022-12-01T13:05:17.161Z,30.23
2022-12-01T13:10:29.441Z,29.95
2022-12-01T13:15:36.485Z,30.08
2022-12-01T13:20:42.030Z,28.13
2022-12-01T13:25:47.739Z,29.60
2022-12-01T13:31:02.846Z,31.00
2022-12-01T13:41:38.457Z,29.60
2022-12-01T13:46:53.434Z,31.65
2022-12-01T13:52:32.980Z,24.52
2022-12-01T13:57:39.175Z,25.88
2022-12-01T14:02:42.069Z,27.17
2022-12-01T14:07:45.178Z,29.67
2022-12-01T14:12:51.182Z,29.88
2022-12-01T14:18:01.988Z,30.27
2022-12-01T14:23:24.200Z,28.38
2022-12-01T14:29:00.430Z,25.52
2022-12-01T14:34:10.375Z,24.30
2022-12-01T14:39:19.924Z,24.52
2022-12-01T14:44:28.827Z,25.13
2022-12-01T14:49:39.281Z,26.73
2022-12-01T14:54:46.257Z,26.38
2022-12-01T15:00:03.445Z,45.65
2022-12-01T15:05:12.041Z,27.05
2022-12-01T15:10:19.434Z,31.42
2022-12-01T15:15:25.796Z,32.58
2022-12-01T15:20:32.572Z,33.77
2022-12-01T15:25:37.075Z,35.17
2022-12-01T15:30:40.651Z,56.75
2022-12-01T15:35:47.238Z,29.10
2022-12-01T15:41:28.421Z,29.53
2022-12-01T15:46:16.622Z,27.40
2022-12-01T15:51:26.872Z,23.58
2022-12-01T15:56:32.816Z,23.52
2022-12-01T16:01:37.197Z,25.35
2022-12-01T16:06:42.215Z,120.32
2022-12-01T16:12:20.794Z,27.60
2022-12-01T16:17:25.568Z,26.73
2022-12-01T16:22:29.934Z,24.52
2022-12-01T16:27:33.313Z,24.80
2022-12-01T16:32:39.029Z,33.30
2022-12-01T16:37:43.233Z,40.58
2022-12-01T16:42:46.253Z,33.78
2022-12-01T16:47:50.230Z,25.02
2022-12-01T16:52:54.587Z,39.47
2022-12-01T16:57:57.445Z,26.35
2022-12-01T17:03:00.800Z,33.85
2022-12-01T17:08:05.955Z,30.88
2022-12-01T17:13:08.866Z,27.10
2022-12-01T17:18:12.596Z,29.15
2022-12-01T17:23:16.779Z,29.63
2022-12-01T17:28:19.617Z,25.98
2022-12-01T17:33:22.446Z,24.05
2022-12-01T17:38:26.666Z,37.92
2022-12-01T17:43:29.476Z,22.58
2022-12-01T17:48:36.466Z,23.55
2022-12-01T17:53:40.724Z,22.80
2022-12-01T17:58:43.735Z,23.38
2022-12-01T18:03:46.950Z,23.20
2022-12-01T18:08:51.107Z,24.65
2022-12-01T18:13:54.624Z,20.90
2022-12-01T18:18:58.997Z,43.50
2022-12-01T18:24:04.870Z,19.38
2022-12-01T18:29:12.408Z,24.27
2022-12-01T18:34:15.132Z,29.80
2022-12-01T18:39:20.329Z,29.58
2022-12-01T18:44:23.280Z,30.35
2022-12-01T18:49:26.598Z,26.70
2022-12-01T18:54:32.174Z,32.65
2022-12-01T18:59:34.938Z,25.10
2022-12-01T19:04:37.862Z,25.60
2022-12-01T19:09:41.995Z,26.30
2022-12-01T19:14:44.842Z,22.52
2022-12-01T19:19:47.789Z,21.45
2022-12-01T19:24:54.253Z,22.65
2022-12-01T19:29:57.245Z,23.33
2022-12-01T19:35:00.462Z,24.80
2022-12-01T19:40:09.115Z,23.30
2022-12-01T19:45:12.345Z,20.43
2022-12-01T19:50:15.200Z,22.55
2022-12-01T19:55:19.379Z,23.38
2022-12-01T20:00:22.855Z,46.55
2022-12-01T20:05:25.753Z,22.25
2022-12-01T20:10:30.323Z,23.13
2022-12-01T20:15:33.941Z,19.00
2022-12-01T20:20:36.926Z,19.40
2022-12-01T20:25:41.054Z,20.85
2022-12-01T20:30:44.489Z,19.67
2022-12-01T20:35:47.341Z,20.67
2022-12-01T20:40:52.681Z,20.77
2022-12-01T20:45:55.769Z,20.77
2022-12-01T20:51:01.051Z,22.77
2022-12-01T20:56:05.624Z,19.90
2022-12-01T21:01:10.215Z,18.85
2022-12-01T21:06:15.346Z,19.58
2022-12-01T21:11:42.476Z,21.25
2022-12-01T21:16:49.090Z,20.30
2022-12-01T21:21:52.035Z,24.00
2022-12-01T21:27:01.444Z,22.88
2022-12-01T21:32:13.761Z,22.65
2022-12-01T21:37:22.278Z,21.67
2022-12-01T21:42:28.449Z,22.88
2022-12-01T21:47:31.609Z,23.83
2022-12-01T21:52:39.815Z,24.33
2022-12-01T21:57:46.214Z,22.58
2022-12-01T22:02:52.480Z,26.60
2022-12-01T22:08:00.560Z,24.17
2022-12-01T22:13:10.215Z,23.10
2022-12-01T22:18:22.958Z,23.70
2022-12-01T22:23:32.893Z,23.20
2022-12-01T22:28:37.217Z,20.60
2022-12-01T22:33:39.990Z,22.30
2022-12-01T22:38:42.811Z,21.85
2022-12-01T22:43:49.079Z,21.48
2022-12-01T22:48:53.734Z,22.93
2022-12-01T22:54:00.774Z,23.92
2022-12-01T23:04:21.307Z,21.38
2022-12-01T23:09:28.618Z,22.60
2022-12-01T23:14:35.043Z,24.90
2022-12-01T23:19:37.814Z,22.67
2022-12-01T23:24:40.870Z,20.50
2022-12-01T23:29:45.194Z,22.75
2022-12-01T23:34:48.149Z,21.90
2022-12-01T23:39:52.245Z,22.80
2022-12-01T23:44:56.477Z,22.65
2022-12-01T23:50:04.072Z,20.95
2022-12-01T23:55:20.668Z,22.63
